createdAt,value
2023-05-11T00:00:27.492Z,2.90
2023-05-11T00:02:54.768Z,2.80
2023-05-11T00:05:21.973Z,2.70
2023-05-11T00:07:49.225Z,3.05
2023-05-11T00:10:16.710Z,2.70
2023-05-11T00:12:45.388Z,2.70
2023-05-11T00:15:12.559Z,2.17
2023-05-11T00:17:39.788Z,2.45
2023-05-11T00:20:08.279Z,2.47
2023-05-11T00:22:35.426Z,2.25
2023-05-11T00:25:02.719Z,2.67
2023-05-11T00:27:29.880Z,2.65
2023-05-11T00:29:58.783Z,2.78
2023-05-11T00:32:26.011Z,2.60
2023-05-11T00:34:53.229Z,2.15
2023-05-11T00:37:20.404Z,2.50
2023-05-11T00:39:47.554Z,2.90
2023-05-11T00:42:14.682Z,3.00
2023-05-11T00:44:41.823Z,2.92
2023-05-11T00:47:10.457Z,2.40
2023-05-11T00:49:37.752Z,2.83
2023-05-11T00:52:05.487Z,2.50
2023-05-11T00:54:33.080Z,2.90
2023-05-11T00:57:00.365Z,2.72
2023-05-11T00:59:27.550Z,2.65
2023-05-11T01:01:55.011Z,2.70
2023-05-11T01:04:23.795Z,3.30
2023-05-11T01:07:00.988Z,2.83
2023-05-11T01:09:46.285Z,2.67
2023-05-11T01:12:22.997Z,2.72
2023-05-11T01:14:57.966Z,2.72
2023-05-11T01:17:34.418Z,2.58
2023-05-11T01:20:08.385Z,2.58
2023-05-11T01:22:48.696Z,2.65
2023-05-11T01:25:42.224Z,2.67
2023-05-11T01:28:25.822Z,2.40
2023-05-11T01:31:00.409Z,2.60
2023-05-11T01:33:32.457Z,2.78
2023-05-11T01:36:05.250Z,3.08
2023-05-11T01:38:36.052Z,2.83
2023-05-11T01:41:08.827Z,2.53
2023-05-11T01:43:37.859Z,2.53
2023-05-11T01:46:10.220Z,3.10
2023-05-11T01:48:42.235Z,2.65
2023-05-11T01:51:10.583Z,2.83
2023-05-11T01:53:39.382Z,2.72
2023-05-11T01:56:07.827Z,3.92
2023-05-11T01:58:36.850Z,3.65
2023-05-11T02:01:04.846Z,3.35
2023-05-11T02:03:36.144Z,3.17
2023-05-11T02:06:05.263Z,2.80
2023-05-11T02:08:34.092Z,3.60
2023-05-11T02:11:02.868Z,2.90
2023-05-11T02:13:30.621Z,2.97
2023-05-11T02:15:59.634Z,2.35
2023-05-11T02:18:29.009Z,2.80
2023-05-11T02:21:01.190Z,3.33
2023-05-11T02:23:31.157Z,3.30
2023-05-11T02:25:58.731Z,3.47
2023-05-11T02:28:26.425Z,3.50
2023-05-11T02:30:56.977Z,3.72
2023-05-11T02:33:30.776Z,3.58
2023-05-11T02:36:00.197Z,3.00
2023-05-11T02:38:34.213Z,2.42
2023-05-11T02:41:07.027Z,2.30
2023-05-11T02:43:36.892Z,2.13
2023-05-11T02:46:08.560Z,2.40
2023-05-11T02:48:40.471Z,2.22
2023-05-11T02:53:45.623Z,2.50
2023-05-11T02:56:13.454Z,2.30
2023-05-11T02:58:40.819Z,2.65
2023-05-11T03:01:17.300Z,2.10
2023-05-11T03:03:44.793Z,2.10
2023-05-11T03:06:13.472Z,2.20
2023-05-11T03:08:41.577Z,2.20
2023-05-11T03:11:09.411Z,2.40
2023-05-11T03:13:37.615Z,2.97
2023-05-11T03:16:07.681Z,2.28
2023-05-11T03:18:36.750Z,2.72
2023-05-11T03:21:05.391Z,2.97
2023-05-11T03:23:35.728Z,3.10
2023-05-11T03:26:04.633Z,3.83
2023-05-11T03:28:32.653Z,3.85
2023-05-11T03:31:04.475Z,3.78
2023-05-11T03:33:32.838Z,4.85
2023-05-11T03:36:03.577Z,4.43
2023-05-11T03:38:34.827Z,4.90
2023-05-11T03:41:02.124Z,5.20
2023-05-11T03:43:34.795Z,5.95
2023-05-11T03:46:03.373Z,6.25
2023-05-11T03:48:31.388Z,5.90
2023-05-11T03:50:59.081Z,4.95
2023-05-11T03:53:26.642Z,4.25
2023-05-11T03:55:55.291Z,4.32
2023-05-11T03:58:22.835Z,5.47
2023-05-11T04:00:50.943Z,5.32
2023-05-11T04:03:18.452Z,4.07
2023-05-11T04:05:45.713Z,4.80
2023-05-11T04:08:13.847Z,4.55
2023-05-11T04:10:41.166Z,5.32
2023-05-11T04:13:09.674Z,5.18
2023-05-11T04:15:36.820Z,4.25
2023-05-11T04:18:04.243Z,4.25
2023-05-11T04:20:32.565Z,4.53
2023-05-11T04:22:59.890Z,5.68
2023-05-11T04:25:27.028Z,5.63
2023-05-11T04:27:54.198Z,5.50
2023-05-11T04:30:23.102Z,4.82
2023-05-11T04:32:50.395Z,7.82
2023-05-11T04:35:17.679Z,6.88
2023-05-11T04:37:44.957Z,5.28
2023-05-11T04:40:13.225Z,5.07
2023-05-11T04:42:41.621Z,5.60
2023-05-11T04:45:16.298Z,5.82
2023-05-11T04:47:45.487Z,6.07
2023-05-11T04:50:13.381Z,5.90
2023-05-11T04:52:40.596Z,5.10
2023-05-11T04:55:08.607Z,5.65
2023-05-11T04:57:35.791Z,4.60
2023-05-11T05:00:05.690Z,4.80
2023-05-11T05:02:33.057Z,4.78
2023-05-11T05:05:01.657Z,4.47
2023-05-11T05:07:28.845Z,4.10
2023-05-11T05:09:56.630Z,4.00
2023-05-11T05:12:23.835Z,3.58
2023-05-11T05:14:51.073Z,3.40
2023-05-11T05:17:18.276Z,3.15
2023-05-11T05:19:45.693Z,3.10
2023-05-11T05:22:14.198Z,2.47
2023-05-11T05:24:41.661Z,2.10
2023-05-11T05:27:09.413Z,2.30
2023-05-11T05:29:36.612Z,2.47
2023-05-11T05:32:03.872Z,2.50
2023-05-11T05:34:31.033Z,2.50
2023-05-11T05:36:58.223Z,2.70
2023-05-11T05:39:26.710Z,2.60
2023-05-11T05:41:53.946Z,3.17
2023-05-11T05:44:21.679Z,2.60
2023-05-11T05:46:48.925Z,2.90
2023-05-11T05:49:16.178Z,2.60
2023-05-11T05:51:43.362Z,3.50
2023-05-11T05:54:10.518Z,2.97
2023-05-11T05:56:39.181Z,3.40
2023-05-11T05:59:07.032Z,3.28
2023-05-11T06:01:34.367Z,3.22
2023-05-11T06:04:01.706Z,2.55
2023-05-11T06:06:31.701Z,2.72
2023-05-11T06:08:58.859Z,2.72
2023-05-11T06:11:26.159Z,2.55
2023-05-11T06:13:54.778Z,2.45
2023-05-11T06:16:22.008Z,2.65
2023-05-11T06:18:49.314Z,2.17
2023-05-11T06:21:16.639Z,2.50
2023-05-11T06:23:44.063Z,2.70
2023-05-11T06:26:11.268Z,2.70
2023-05-11T06:28:39.039Z,2.58
2023-05-11T06:31:12.128Z,2.70
2023-05-11T06:33:40.938Z,2.58
2023-05-11T06:36:13.650Z,2.88
2023-05-11T06:38:40.791Z,2.90
2023-05-11T06:41:08.642Z,3.15
2023-05-11T06:43:35.788Z,2.65
2023-05-11T06:46:03.732Z,2.85
2023-05-11T06:48:33.611Z,2.70
2023-05-11T06:51:00.854Z,2.90
2023-05-11T06:53:28.092Z,3.17
2023-05-11T06:55:58.382Z,2.58
2023-05-11T06:58:26.649Z,3.15
2023-05-11T07:00:53.864Z,2.50
2023-05-11T07:03:21.089Z,2.88
2023-05-11T07:05:49.574Z,2.58
2023-05-11T07:08:16.731Z,2.53
2023-05-11T07:10:43.893Z,2.30
2023-05-11T07:13:11.103Z,2.25
2023-05-11T07:15:38.287Z,2.40
2023-05-11T07:18:08.322Z,1.92
2023-05-11T07:20:37.226Z,2.15
2023-05-11T07:23:06.489Z,1.90
2023-05-11T07:25:33.820Z,2.30
2023-05-11T07:28:00.982Z,2.00
2023-05-11T07:30:28.177Z,2.17
2023-05-11T07:32:55.393Z,2.03
2023-05-11T07:35:24.179Z,2.10
2023-05-11T07:37:51.715Z,2.58
2023-05-11T07:40:20.547Z,2.30
2023-05-11T07:42:47.939Z,2.50
2023-05-11T07:45:15.126Z,2.90
2023-05-11T07:47:42.319Z,3.20
2023-05-11T07:50:09.955Z,3.20
2023-05-11T07:52:37.113Z,2.95
2023-05-11T07:55:04.875Z,2.53
2023-05-11T07:57:33.432Z,2.90
2023-05-11T08:00:00.637Z,3.50
2023-05-11T08:02:27.973Z,3.30
2023-05-11T08:04:55.242Z,2.67
2023-05-11T08:07:22.384Z,2.75
2023-05-11T08:09:49.584Z,3.65
2023-05-11T08:12:16.731Z,3.80
2023-05-11T08:14:45.251Z,3.42
2023-05-11T08:17:12.400Z,3.67
2023-05-11T08:19:39.537Z,3.28
2023-05-11T08:22:06.738Z,3.70
2023-05-11T08:24:33.895Z,4.20
2023-05-11T08:27:01.071Z,4.75
2023-05-11T08:29:28.293Z,4.70
2023-05-11T08:31:56.903Z,4.43
2023-05-11T08:34:24.323Z,4.43
2023-05-11T08:36:51.629Z,5.07
2023-05-11T08:39:28.532Z,5.13
2023-05-11T08:42:06.360Z,5.30
2023-05-11T08:44:35.293Z,6.05
2023-05-11T08:47:21.038Z,4.97
2023-05-11T08:49:48.963Z,5.18
2023-05-11T08:52:18.117Z,5.25
2023-05-11T08:54:45.464Z,5.10
2023-05-11T08:57:14.068Z,5.45
2023-05-11T08:59:41.957Z,5.82
2023-05-11T09:02:15.713Z,5.55
2023-05-11T09:04:46.084Z,4.95
2023-05-11T09:07:16.429Z,5.18
2023-05-11T09:09:43.977Z,5.75
2023-05-11T09:12:12.137Z,5.53
2023-05-11T09:14:39.706Z,5.05
2023-05-11T09:17:07.004Z,4.90
2023-05-11T09:19:35.589Z,6.57
2023-05-11T09:22:04.964Z,5.90
2023-05-11T09:24:32.554Z,4.85
2023-05-11T09:27:09.822Z,5.22
2023-05-11T09:29:37.070Z,5.30
2023-05-11T09:32:04.934Z,5.15
2023-05-11T09:34:32.142Z,6.22
2023-05-11T09:37:00.802Z,5.35
2023-05-11T09:42:12.009Z,6.72
2023-05-11T09:44:39.458Z,5.57
2023-05-11T09:47:11.574Z,5.82
2023-05-11T09:49:38.937Z,5.72
2023-05-11T09:52:07.531Z,6.28
2023-05-11T09:54:40.902Z,6.22
2023-05-11T09:57:21.883Z,6.88
2023-05-11T09:59:49.091Z,7.03
2023-05-11T10:02:20.816Z,6.57
2023-05-11T10:07:27.267Z,7.00
2023-05-11T10:09:55.748Z,6.57
2023-05-11T10:12:25.070Z,6.55
2023-05-11T10:14:55.158Z,6.70
2023-05-11T10:17:22.893Z,10.02
2023-05-11T10:19:50.160Z,6.90
2023-05-11T10:22:18.256Z,7.28
2023-05-11T10:24:47.150Z,7.15
2023-05-11T10:27:14.403Z,9.00
2023-05-11T10:29:43.492Z,8.35
2023-05-11T10:32:11.578Z,7.90
2023-05-11T10:34:38.844Z,8.32
2023-05-11T10:37:06.128Z,7.75
2023-05-11T10:39:36.213Z,8.38
2023-05-11T10:42:18.670Z,8.23
2023-05-11T10:45:12.589Z,8.30
2023-05-11T10:48:12.042Z,8.82
2023-05-11T10:50:52.102Z,8.98
2023-05-11T10:53:33.828Z,8.45
2023-05-11T10:56:14.326Z,7.32
2023-05-11T10:58:59.282Z,7.97
2023-05-11T11:01:37.526Z,9.13
2023-05-11T11:04:06.948Z,9.63
2023-05-11T11:06:36.607Z,7.93
2023-05-11T11:09:05.597Z,8.15
2023-05-11T11:11:35.453Z,8.32
2023-05-11T11:14:04.457Z,8.07
2023-05-11T11:16:32.534Z,8.27
2023-05-11T11:19:35.869Z,7.95
2023-05-11T11:22:03.330Z,7.15
2023-05-11T11:24:43.284Z,7.78
2023-05-11T11:27:10.714Z,7.28
2023-05-11T11:29:40.070Z,6.80
2023-05-11T11:32:26.409Z,7.00
2023-05-11T11:34:53.730Z,7.07
2023-05-11T11:37:21.016Z,7.10
2023-05-11T11:39:52.816Z,8.27
2023-05-11T11:42:33.356Z,7.57
2023-05-11T11:45:32.637Z,7.65
2023-05-11T11:48:21.289Z,6.18
2023-05-11T11:50:49.614Z,6.65
2023-05-11T11:54:04.375Z,6.55
2023-05-11T11:56:49.315Z,6.53
2023-05-11T11:59:16.538Z,6.20
2023-05-11T12:01:45.498Z,6.03
2023-05-11T12:04:49.434Z,5.90
2023-05-11T12:07:19.711Z,6.00
2023-05-11T12:09:47.136Z,6.13
2023-05-11T12:12:17.448Z,6.15
2023-05-11T12:14:45.319Z,6.35
2023-05-11T12:17:14.196Z,6.70
2023-05-11T12:19:45.037Z,6.00
2023-05-11T12:22:12.530Z,5.17
2023-05-11T12:24:40.641Z,6.38
2023-05-11T12:27:07.979Z,6.15
2023-05-11T12:29:35.171Z,5.90
2023-05-11T12:32:02.384Z,5.68
2023-05-11T12:34:30.913Z,6.22
2023-05-11T12:37:00.239Z,6.80
2023-05-11T12:39:28.117Z,7.93
2023-05-11T12:41:56.398Z,7.93
2023-05-11T12:44:26.323Z,7.22
2023-05-11T12:46:53.964Z,6.97
2023-05-11T12:49:26.199Z,6.50
2023-05-11T12:52:03.814Z,6.15
2023-05-11T12:54:32.752Z,6.60
2023-05-11T12:57:01.496Z,6.30
2023-05-11T12:59:33.915Z,5.75
2023-05-11T13:02:11.621Z,6.35
2023-05-11T13:04:39.696Z,6.05
2023-05-11T13:07:10.453Z,5.68
2023-05-11T13:09:38.640Z,7.07
2023-05-11T13:12:14.609Z,7.30
2023-05-11T13:14:41.829Z,6.63
2023-05-11T13:17:09.651Z,5.75
2023-05-11T13:19:37.065Z,5.95
2023-05-11T13:22:04.902Z,6.85
2023-05-11T13:24:34.623Z,6.35
2023-05-11T13:27:02.082Z,7.22
2023-05-11T13:29:29.267Z,7.70
2023-05-11T13:31:56.498Z,7.25
2023-05-11T13:34:25.276Z,6.43
2023-05-11T13:36:52.457Z,6.93
2023-05-11T13:39:20.802Z,6.35
2023-05-11T13:41:49.323Z,6.40
2023-05-11T13:44:16.497Z,4.47
2023-05-11T13:46:43.693Z,4.30
2023-05-11T13:49:10.885Z,4.13
2023-05-11T13:51:38.172Z,3.72
2023-05-11T13:54:05.411Z,4.30
2023-05-11T13:56:32.607Z,4.10
2023-05-11T13:59:01.147Z,4.47
2023-05-11T14:01:28.361Z,5.45
2023-05-11T14:03:56.853Z,6.32
2023-05-11T14:06:25.097Z,7.38
2023-05-11T14:08:53.491Z,8.25
2023-05-11T14:11:20.856Z,9.75
2023-05-11T14:13:48.034Z,9.52
2023-05-11T14:16:17.149Z,9.45
2023-05-11T14:18:44.488Z,10.00
2023-05-11T14:21:11.841Z,10.15
2023-05-11T14:23:43.066Z,10.35
2023-05-11T14:26:14.565Z,10.15
2023-05-11T14:28:41.866Z,10.13
2023-05-11T14:31:09.535Z,9.55
2023-05-11T14:33:39.164Z,9.80
2023-05-11T14:36:07.861Z,10.43
2023-05-11T14:38:35.078Z,10.73
2023-05-11T14:41:02.317Z,10.68
2023-05-11T14:43:29.500Z,7.75
2023-05-11T14:45:56.758Z,5.57
2023-05-11T14:48:23.898Z,5.18
2023-05-11T14:50:52.439Z,7.38
2023-05-11T14:53:19.731Z,5.68
2023-05-11T14:55:46.974Z,5.82
2023-05-11T14:58:14.138Z,5.88
2023-05-11T15:00:41.353Z,6.10
2023-05-11T15:03:08.751Z,5.30
2023-05-11T15:05:36.096Z,6.05
2023-05-11T15:08:12.767Z,5.38
2023-05-11T15:10:45.690Z,6.38
2023-05-11T15:13:12.837Z,5.63
2023-05-11T15:15:40.042Z,5.32
2023-05-11T15:18:07.367Z,5.72
2023-05-11T15:20:34.670Z,7.65
2023-05-11T15:23:01.949Z,5.80
2023-05-11T15:25:30.470Z,6.47
2023-05-11T15:27:57.676Z,6.07
2023-05-11T15:30:25.080Z,6.60
2023-05-11T15:32:52.295Z,7.40
2023-05-11T15:35:19.667Z,6.63
2023-05-11T15:37:47.046Z,7.82
2023-05-11T15:40:14.254Z,6.68
2023-05-11T15:42:42.842Z,7.82
2023-05-11T15:45:10.159Z,7.78
2023-05-11T15:47:37.332Z,6.88
2023-05-11T15:50:05.001Z,7.70
2023-05-11T15:52:32.224Z,8.20
2023-05-11T15:54:59.388Z,7.90
2023-05-11T15:57:26.550Z,8.48
2023-05-11T15:59:55.082Z,7.85
2023-05-11T16:02:22.275Z,7.18
2023-05-11T16:04:49.541Z,7.38
2023-05-11T16:07:16.761Z,6.57
2023-05-11T16:09:44.036Z,7.35
2023-05-11T16:12:11.234Z,6.72
2023-05-11T16:14:38.366Z,8.25
2023-05-11T16:17:06.992Z,8.18
2023-05-11T16:19:34.223Z,8.32
2023-05-11T16:22:01.382Z,7.78
2023-05-11T16:24:28.569Z,8.32
2023-05-11T16:26:56.036Z,8.15
2023-05-11T16:29:23.233Z,7.32
2023-05-11T16:31:50.456Z,5.53
2023-05-11T16:34:19.026Z,5.10
2023-05-11T16:36:46.181Z,4.90
2023-05-11T16:39:13.454Z,4.53
2023-05-11T16:41:40.606Z,4.35
2023-05-11T16:44:07.752Z,4.78
2023-05-11T16:46:35.011Z,3.90
2023-05-11T16:49:02.180Z,4.07
2023-05-11T16:51:30.669Z,4.07
2023-05-11T16:53:57.827Z,4.43
2023-05-11T16:56:25.024Z,4.00
2023-05-11T16:58:52.441Z,5.68
2023-05-11T17:01:19.626Z,5.68
2023-05-11T17:03:46.874Z,5.82
2023-05-11T17:06:14.086Z,5.82
2023-05-11T17:08:42.629Z,4.93
2023-05-11T17:11:09.790Z,5.47
2023-05-11T17:13:36.956Z,5.30
2023-05-11T17:16:04.782Z,6.18
2023-05-11T17:18:32.073Z,5.13
2023-05-11T17:20:59.309Z,4.70
2023-05-11T17:23:26.895Z,5.82
2023-05-11T17:25:55.949Z,5.38
2023-05-11T17:28:23.188Z,5.05
2023-05-11T17:30:51.109Z,4.82
2023-05-11T17:33:18.727Z,5.80
2023-05-11T17:35:45.981Z,5.13
2023-05-11T17:38:13.176Z,4.78
2023-05-11T17:40:40.326Z,5.22
2023-05-11T17:43:08.866Z,5.60
2023-05-11T17:45:36.085Z,5.47
2023-05-11T17:48:03.561Z,4.80
2023-05-11T17:50:30.811Z,4.72
2023-05-11T17:52:57.957Z,5.88
2023-05-11T17:55:25.380Z,5.30
2023-05-11T17:57:52.579Z,5.35
2023-05-11T18:00:21.901Z,6.28
2023-05-11T18:02:49.324Z,5.22
2023-05-11T18:05:16.849Z,5.28
2023-05-11T18:07:44.003Z,4.88
2023-05-11T18:10:11.184Z,5.60
2023-05-11T18:12:38.337Z,5.72
2023-05-11T18:15:06.524Z,5.97
2023-05-11T18:17:35.033Z,6.50
2023-05-11T18:20:02.297Z,6.57
2023-05-11T18:22:29.469Z,6.68
2023-05-11T18:24:56.651Z,6.82
2023-05-11T18:27:23.845Z,6.50
2023-05-11T18:29:51.145Z,7.20
2023-05-11T18:32:18.313Z,6.70
2023-05-11T18:34:46.881Z,7.22
2023-05-11T18:37:14.116Z,7.25
2023-05-11T18:39:41.298Z,6.25
2023-05-11T18:42:08.482Z,7.03
2023-05-11T18:44:35.613Z,6.80
2023-05-11T18:47:03.255Z,6.68
2023-05-11T18:49:30.538Z,6.20
2023-05-11T18:51:59.106Z,7.05
2023-05-11T18:54:26.370Z,7.15
2023-05-11T18:56:53.519Z,6.93
2023-05-11T18:59:20.702Z,6.90
2023-05-11T19:01:48.612Z,7.80
2023-05-11T19:04:15.980Z,6.78
2023-05-11T19:06:43.186Z,7.40
2023-05-11T19:09:11.690Z,6.82
2023-05-11T19:11:38.969Z,7.47
2023-05-11T19:14:06.211Z,7.70
2023-05-11T19:16:33.380Z,8.00
2023-05-11T19:19:00.577Z,7.85
2023-05-11T19:21:27.768Z,7.88
2023-05-11T19:23:54.998Z,8.23
2023-05-11T19:26:23.594Z,8.05
2023-05-11T19:28:50.795Z,8.23
2023-05-11T19:31:18.190Z,9.05
2023-05-11T19:33:45.418Z,8.68
2023-05-11T19:36:12.582Z,9.18
2023-05-11T19:38:39.757Z,8.60
2023-05-11T19:41:06.911Z,8.68
2023-05-11T19:43:35.898Z,9.05
2023-05-11T19:46:03.367Z,8.25
2023-05-11T19:48:30.868Z,8.02
2023-05-11T19:50:58.088Z,7.20
2023-05-11T19:53:25.473Z,6.90
2023-05-11T19:55:52.676Z,7.43
2023-05-11T19:58:20.049Z,6.20
2023-05-11T20:00:49.181Z,6.03
2023-05-11T20:03:16.516Z,6.03
2023-05-11T20:05:43.817Z,7.25
2023-05-11T20:08:10.950Z,8.02
2023-05-11T20:10:38.437Z,8.13
2023-05-11T20:13:05.634Z,7.68
2023-05-11T20:15:32.857Z,6.10
2023-05-11T20:18:01.612Z,6.20
2023-05-11T20:20:28.956Z,5.05
2023-05-11T20:22:56.505Z,5.03
2023-05-11T20:25:23.678Z,5.38
2023-05-11T20:27:51.058Z,5.85
2023-05-11T20:30:18.681Z,5.38
2023-05-11T20:35:17.873Z,7.22
2023-05-11T20:37:45.237Z,6.50
2023-05-11T20:40:13.047Z,5.72
2023-05-11T20:42:40.241Z,5.90
2023-05-11T20:45:08.604Z,4.97
2023-05-11T20:47:35.803Z,4.38
2023-05-11T20:50:03.504Z,4.45
2023-05-11T20:52:32.048Z,4.25
2023-05-11T20:54:59.176Z,4.25
2023-05-11T20:57:26.382Z,4.53
2023-05-11T21:02:23.631Z,4.90
2023-05-11T21:04:50.831Z,5.75
2023-05-11T21:07:17.984Z,5.82
2023-05-11T21:09:46.516Z,5.38
2023-05-11T21:12:13.639Z,5.30
2023-05-11T21:14:40.810Z,4.85
2023-05-11T21:17:08.123Z,5.18
2023-05-11T21:19:35.376Z,4.15
2023-05-11T21:22:02.568Z,3.80
2023-05-11T21:24:29.715Z,3.60
2023-05-11T21:26:58.290Z,4.32
2023-05-11T21:29:25.552Z,4.47
2023-05-11T21:31:52.709Z,3.25
2023-05-11T21:34:19.850Z,3.83
2023-05-11T21:36:47.091Z,3.55
2023-05-11T21:39:14.241Z,3.50
2023-05-11T21:41:41.408Z,4.22
2023-05-11T21:44:09.920Z,4.22
2023-05-11T21:46:37.096Z,3.97
2023-05-11T21:49:04.327Z,4.15
2023-05-11T21:51:31.547Z,3.83
2023-05-11T21:53:58.764Z,2.97
2023-05-11T21:56:25.929Z,3.30
2023-05-11T21:58:53.070Z,2.30
2023-05-11T22:01:21.598Z,2.25
2023-05-11T22:03:48.935Z,2.55
2023-05-11T22:06:16.331Z,1.90
2023-05-11T22:08:44.365Z,3.00
2023-05-11T22:11:11.615Z,2.25
2023-05-11T22:13:38.792Z,1.90
2023-05-11T22:16:06.513Z,2.15
2023-05-11T22:18:35.080Z,1.77
2023-05-11T22:21:02.396Z,1.95
2023-05-11T22:23:29.573Z,1.77
2023-05-11T22:25:56.708Z,1.92
2023-05-11T22:28:23.874Z,1.80
2023-05-11T22:30:51.031Z,1.80
2023-05-11T22:33:18.222Z,1.75
2023-05-11T22:35:46.776Z,1.30
2023-05-11T22:38:13.973Z,1.40
2023-05-11T22:40:41.234Z,1.60
2023-05-11T22:43:08.725Z,1.90
2023-05-11T22:45:36.689Z,1.70
2023-05-11T22:48:04.841Z,1.73
2023-05-11T22:50:32.089Z,1.98
2023-05-11T22:53:00.605Z,1.55
2023-05-11T22:55:27.837Z,1.60
2023-05-11T22:57:55.035Z,1.80
2023-05-11T23:00:22.443Z,1.95
2023-05-11T23:02:50.020Z,1.70
2023-05-11T23:05:17.349Z,2.10
2023-05-11T23:07:44.494Z,1.80
2023-05-11T23:10:13.047Z,1.77
2023-05-11T23:12:40.196Z,1.90
2023-05-11T23:15:08.245Z,1.88
2023-05-11T23:17:35.571Z,1.80
2023-05-11T23:20:02.963Z,1.88
2023-05-11T23:22:30.143Z,1.52
2023-05-11T23:24:57.317Z,1.80
2023-05-11T23:27:25.964Z,1.70
2023-05-11T23:29:53.121Z,1.70
2023-05-11T23:32:20.444Z,2.22
2023-05-11T23:34:47.632Z,1.63
2023-05-11T23:37:14.820Z,1.92
2023-05-11T23:39:41.998Z,1.88
2023-05-11T23:42:09.182Z,2.15
2023-05-11T23:44:37.876Z,1.90
2023-05-11T23:47:05.534Z,2.00
2023-05-11T23:49:32.702Z,2.30
2023-05-11T23:51:59.872Z,1.70
2023-05-11T23:54:27.086Z,1.73
2023-05-11T23:56:54.348Z,2.10
2023-05-11T23:59:21.499Z,1.80
